Time;durP1;ratioP1;P1;durP2;ratioP2;P2;SDS_P1;SDS_P2;PMS_P1;PMS_P2;Temp;Humidity;BMP_temperature;BMP_pressure;BME280_temperature;BME280_humidity;BME280_pressure;Samples;Min_cycle;Max_cycle;Signal;HPM_P1;HPM_P2
2023/09/15 00:00:25;;;;;;;16.77;6.68;;;;;;;19.65;61.55;94133.53;5082515;28;20065;-86
2023/09/15 00:02:54;;;;;;;12.52;6.45;;;;;;;19.62;61.90;94125.34;5083820;28;20024;-86
2023/09/15 00:05:20;;;;;;;11.18;6.38;;;;;;;19.55;62.07;94120.63;5065340;28;20280;-86
2023/09/15 00:07:46;;;;;;;11.88;6.70;;;;;;;19.56;62.63;94127.59;5083486;28;20024;-86
2023/09/15 00:10:11;;;;;;;15.95;6.75;;;;;;;19.50;62.19;94118.25;5065977;28;20062;-86
2023/09/15 00:12:38;;;;;;;14.80;6.80;;;;;;;19.53;62.51;94124.84;5083706;28;20377;-87
2023/09/15 00:15:07;;;;;;;11.73;6.60;;;;;;;19.48;62.85;94117.03;5083716;28;20027;-86
2023/09/15 00:17:40;;;;;;;21.33;7.15;;;;;;;19.49;63.35;94118.59;5083893;28;20082;-87
2023/09/15 00:20:13;;;;;;;;;;;;;;;19.44;63.67;94128.56;5084321;28;20222;-87
2023/09/15 00:22:41;;;;;;;13.68;8.15;;;;;;;19.44;63.71;94127.81;5083706;28;19976;-86
2023/09/15 00:25:09;;;;;;;20.33;7.65;;;;;;;19.46;63.73;94130.94;5082396;28;20043;-86
2023/09/15 00:27:34;;;;;;;14.80;7.72;;;;;;;19.48;64.02;94130.53;5083393;28;20020;-86
2023/09/15 00:30:00;;;;;;;9.98;7.10;;;;;;;19.51;64.23;94124.44;5065284;28;20299;-87
2023/09/15 00:32:25;;;;;;;13.13;7.28;;;;;;;19.52;63.84;94125.97;5083409;28;20017;-86
2023/09/15 00:34:51;;;;;;;11.45;6.90;;;;;;;19.53;63.71;94119.44;5083446;28;20315;-88
2023/09/15 00:37:17;;;;;;;11.98;7.55;;;;;;;19.56;63.74;94127.59;5083775;28;20024;-88
2023/09/15 00:39:42;;;;;;;12.35;7.05;;;;;;;19.56;63.94;94126.81;5083916;28;20024;-88
2023/09/15 00:42:08;;;;;;;16.02;7.65;;;;;;;19.55;63.86;94122.56;5083674;28;20092;-88
2023/09/15 00:44:34;;;;;;;15.88;6.93;;;;;;;19.56;63.77;94130.31;5083645;28;20032;-87
2023/09/15 00:47:00;;;;;;;15.30;7.47;;;;;;;19.57;64.16;94120.28;5066064;28;20282;-87
2023/09/15 00:49:25;;;;;;;17.92;7.65;;;;;;;19.56;64.28;94124.91;5083358;28;20024;-87
2023/09/15 00:51:51;;;;;;;9.57;6.45;;;;;;;19.58;64.16;94116.41;5083929;28;20016;-87
2023/09/15 00:54:21;;;;;;;16.75;7.32;;;;;;;19.58;64.10;94125.31;5065219;28;20307;-85
2023/09/15 00:56:46;;;;;;;15.52;7.53;;;;;;;19.57;64.24;94129.16;5083187;28;20024;-85
2023/09/15 00:59:13;;;;;;;21.30;8.23;;;;;;;19.56;64.52;94130.31;5064922;28;20032;-85
2023/09/15 01:01:40;;;;;;;11.18;7.10;;;;;;;19.55;64.44;94131.44;5082901;28;20028;-84
2023/09/15 01:04:08;;;;;;;14.30;7.68;;;;;;;19.51;65.03;94129.84;5082918;28;20033;-85
2023/09/15 01:06:37;;;;;;;13.68;8.45;;;;;;;19.47;64.89;94134.41;5083024;28;20066;-84
2023/09/15 01:09:05;;;;;;;20.00;8.80;;;;;;;19.45;64.97;94151.75;5082853;28;20031;-85
2023/09/15 01:11:31;;;;;;;17.45;7.90;;;;;;;19.41;65.27;94137.41;5083036;28;20060;-85
2023/09/15 01:13:57;;;;;;;16.90;8.73;;;;;;;19.43;65.23;94147.84;5082607;28;20027;-85
2023/09/15 01:16:33;;;;;;;12.88;7.93;;;;;;;19.42;65.34;94141.69;5064780;28;20240;-85
2023/09/15 01:19:24;;;;;;;13.20;7.55;;;;;;;19.42;65.35;94147.09;5083061;28;20090;-87
2023/09/15 01:22:17;;;;;;;12.13;8.55;;;;;;;19.40;65.51;94137.78;5082861;28;20322;-87
2023/09/15 01:24:48;;;;;;;11.68;7.82;;;;;;;19.40;65.38;94154.00;5083148;28;20032;-87
2023/09/15 01:27:34;;;;;;;13.13;8.20;;;;;;;19.37;65.29;94155.47;5065178;28;20265;-87
2023/09/15 01:30:02;;;;;;;14.40;8.10;;;;;;;19.39;65.31;94155.13;5082661;28;20066;-87
2023/09/15 01:32:28;;;;;;;14.40;8.18;;;;;;;19.38;65.55;94151.66;5082699;28;20054;-86
2023/09/15 01:34:54;;;;;;;15.10;8.80;;;;;;;19.35;65.59;94149.66;5082713;28;20025;-87
2023/09/15 01:37:20;;;;;;;14.23;8.38;;;;;;;19.35;65.42;94151.59;5064968;28;20219;-86
2023/09/15 01:39:47;;;;;;;13.68;8.07;;;;;;;19.36;65.83;94158.56;5064801;28;20028;-86
2023/09/15 01:42:13;;;;;;;15.07;8.32;;;;;;;19.38;65.58;94154.34;5066257;28;20350;-86
2023/09/15 01:44:38;;;;;;;20.42;8.07;;;;;;;19.35;65.55;94163.16;5068642;28;20024;-86
2023/09/15 01:47:08;;;;;;;15.85;7.72;;;;;;;19.29;65.50;94163.84;5086373;28;20214;-86
2023/09/15 01:49:35;;;;;;;14.13;8.30;;;;;;;19.17;66.11;94160.19;5086368;28;20024;-86
2023/09/15 01:52:01;;;;;;;13.52;7.82;;;;;;;19.17;65.96;94165.59;5085908;28;20020;-86
2023/09/15 01:54:27;;;;;;;20.00;8.15;;;;;;;19.06;66.24;94172.72;5085376;28;20024;-86
2023/09/15 01:56:53;;;;;;;16.20;8.30;;;;;;;19.08;66.21;94169.66;5068217;28;20382;-85
2023/09/15 01:59:18;;;;;;;14.07;8.07;;;;;;;19.02;66.22;94164.53;5086007;28;20016;-85
2023/09/15 02:01:44;;;;;;;10.30;6.88;;;;;;;19.00;66.55;94163.34;5067478;28;20032;-86
2023/09/15 02:04:09;;;;;;;18.00;8.75;;;;;;;19.00;66.47;94166.06;5085755;28;20028;-85
2023/09/15 02:06:35;;;;;;;14.15;7.60;;;;;;;18.98;66.73;94169.09;5085510;28;20040;-85
2023/09/15 02:09:01;;;;;;;15.68;8.00;;;;;;;18.99;66.77;94170.69;5067948;28;20023;-85
2023/09/15 02:11:26;;;;;;;17.92;8.48;;;;;;;18.97;66.86;94169.44;5085440;28;20147;-86
2023/09/15 02:13:51;;;;;;;16.95;7.65;;;;;;;18.99;66.72;94172.56;5085571;28;20024;-85
2023/09/15 02:16:17;;;;;;;12.02;7.78;;;;;;;18.98;66.72;94168.34;5067603;28;20215;-85
2023/09/15 02:18:43;;;;;;;14.00;8.13;;;;;;;18.96;66.77;94165.97;5085667;28;20027;-85
2023/09/15 02:21:08;;;;;;;12.82;8.65;;;;;;;19.00;66.88;94172.22;5067529;28;20027;-85
2023/09/15 02:23:34;;;;;;;17.45;9.20;;;;;;;18.86;67.10;94179.28;5085542;28;20087;-85
2023/09/15 02:26:04;;;;;;;15.50;8.38;;;;;;;18.90;66.95;94185.53;5085506;28;20084;-86
2023/09/15 02:28:31;;;;;;;13.48;8.50;;;;;;;18.87;67.15;94181.66;5085623;28;20089;-85
2023/09/15 02:30:56;;;;;;;14.85;8.57;;;;;;;18.86;67.30;94190.88;5085443;28;20021;-86
2023/09/15 02:33:22;;;;;;;13.90;8.73;;;;;;;18.83;67.22;94183.50;5067577;28;20315;-86
2023/09/15 02:35:48;;;;;;;13.18;8.13;;;;;;;18.83;67.41;94191.59;5085324;28;20276;-86
2023/09/15 02:38:15;;;;;;;14.13;8.23;;;;;;;18.83;67.43;94189.69;5085210;28;20024;-86
2023/09/15 02:40:40;;;;;;;19.20;9.15;;;;;;;18.83;67.83;94188.91;5085259;28;20029;-86
2023/09/15 02:43:08;;;;;;;14.32;9.50;;;;;;;18.74;67.92;94183.66;5067302;28;20126;-86
2023/09/15 02:45:35;;;;;;;16.48;8.07;;;;;;;18.70;67.94;94190.16;5085106;28;20315;-86
2023/09/15 02:48:01;;;;;;;12.90;8.48;;;;;;;18.67;68.18;94190.88;5085104;28;20031;-86
2023/09/15 02:50:26;;;;;;;13.35;8.80;;;;;;;18.69;68.37;94188.59;5085085;28;20047;-85
2023/09/15 02:52:51;;;;;;;13.13;8.85;;;;;;;18.69;67.91;94191.31;5066688;28;20024;-85
2023/09/15 02:55:17;;;;;;;16.83;8.77;;;;;;;18.71;67.90;94184.41;5084404;28;20062;-85
2023/09/15 02:57:43;;;;;;;12.38;8.05;;;;;;;18.71;67.52;94180.94;5084720;28;20349;-85
2023/09/15 03:00:13;;;;;;;17.17;8.15;;;;;;;18.69;67.85;94186.66;5084657;28;20257;-85
2023/09/15 03:02:40;;;;;;;15.52;8.30;;;;;;;18.65;67.81;94197.41;5084637;28;20032;-85
2023/09/15 03:05:07;;;;;;;14.50;8.43;;;;;;;18.67;67.65;94193.56;5084595;28;20028;-85
2023/09/15 03:07:33;;;;;;;11.45;7.35;;;;;;;18.65;67.24;94191.22;5084743;28;20024;-85
2023/09/15 03:09:58;;;;;;;11.63;7.00;;;;;;;18.65;67.17;94202.03;5084561;28;20055;-84
2023/09/15 03:12:23;;;;;;;11.65;6.78;;;;;;;18.69;67.27;94196.69;5066611;28;20052;-85
2023/09/15 03:14:52;;;;;;;14.85;7.35;;;;;;;18.71;67.22;94200.59;5084517;28;20231;-86
2023/09/15 03:17:18;;;;;;;12.95;7.32;;;;;;;18.73;67.20;94203.72;5084837;28;20341;-85
2023/09/15 03:19:43;;;;;;;10.80;6.90;;;;;;;18.75;67.10;94201.44;5084499;28;20074;-85
2023/09/15 03:22:10;;;;;;;11.48;7.32;;;;;;;18.73;67.06;94203.72;5066549;28;20249;-86
2023/09/15 03:24:36;;;;;;;17.45;7.43;;;;;;;18.74;67.40;94209.91;5084458;28;20353;-86
2023/09/15 03:27:02;;;;;;;14.00;8.85;;;;;;;18.69;67.49;94208.28;5084657;28;20070;-86
2023/09/15 03:29:27;;;;;;;14.20;8.38;;;;;;;18.67;67.79;94212.47;5084519;28;20028;-85
2023/09/15 03:31:54;;;;;;;12.82;8.18;;;;;;;18.63;68.19;94215.09;5084422;28;20043;-86
2023/09/15 03:34:19;;;;;;;13.57;8.32;;;;;;;18.49;68.09;94214.81;5066535;28;20028;-85
2023/09/15 03:36:46;;;;;;;12.88;7.97;;;;;;;18.48;68.36;94219.44;5084305;28;20069;-85
2023/09/15 03:39:11;;;;;;;13.93;7.22;;;;;;;18.42;68.27;94215.44;5084245;28;20323;-85
2023/09/15 03:41:37;;;;;;;15.68;7.88;;;;;;;18.41;68.50;94219.25;5083813;28;20027;-85
2023/09/15 03:44:04;;;;;;;15.27;7.95;;;;;;;18.42;68.21;94232.41;5083945;28;20016;-86
2023/09/15 03:46:30;;;;;;;12.60;8.40;;;;;;;18.38;68.55;94228.09;5066605;28;20070;-85
2023/09/15 03:48:56;;;;;;;11.77;7.65;;;;;;;18.37;68.35;94215.72;5083709;28;20027;-85
2023/09/15 03:51:22;;;;;;;15.80;8.13;;;;;;;18.33;68.79;94228.34;5083860;28;20012;-86
2023/09/15 03:53:48;;;;;;;12.82;8.07;;;;;;;18.31;68.99;94225.22;5083699;28;20016;-86
2023/09/15 03:56:13;;;;;;;11.85;7.57;;;;;;;18.25;68.94;94228.19;5083544;28;20024;-85
2023/09/15 03:58:38;;;;;;;18.20;7.75;;;;;;;18.18;69.08;94230.75;5083746;28;20220;-85
2023/09/15 04:01:06;;;;;;;11.65;7.53;;;;;;;18.13;69.21;94225.59;5065681;28;20021;-85
2023/09/15 04:03:36;;;;;;;10.45;6.57;;;;;;;18.09;69.05;94232.84;5083831;28;20020;-85
2023/09/15 04:06:04;;;;;;;10.57;7.20;;;;;;;18.04;69.24;94235.81;5083463;28;20062;-84
2023/09/15 04:08:32;;;;;;;10.07;6.68;;;;;;;18.04;69.23;94241.22;5083655;28;20070;-86
2023/09/15 04:10:58;;;;;;;15.43;7.65;;;;;;;18.03;69.12;94226.94;5083399;28;20020;-84
2023/09/15 04:13:23;;;;;;;11.27;7.25;;;;;;;18.03;69.43;94236.94;5083453;28;20374;-85
2023/09/15 04:15:50;;;;;;;11.63;6.30;;;;;;;17.98;69.36;94234.53;5083428;28;20029;-85
2023/09/15 04:18:15;;;;;;;13.50;7.20;;;;;;;18.02;69.04;94246.94;5082849;28;20092;-85
2023/09/15 04:20:41;;;;;;;11.88;6.60;;;;;;;18.04;69.25;94239.28;5083529;28;20059;-86
2023/09/15 04:23:06;;;;;;;14.25;6.50;;;;;;;18.01;69.19;94244.59;5083480;28;20032;-85
2023/09/15 04:25:32;;;;;;;13.40;6.40;;;;;;;18.00;69.20;94245.75;5083565;28;20025;-86
2023/09/15 04:27:57;;;;;;;13.93;6.38;;;;;;;18.02;69.12;94240.78;5065743;28;20028;-86
2023/09/15 04:30:23;;;;;;;10.65;6.30;;;;;;;18.03;68.93;94245.03;5065885;28;20206;-86
2023/09/15 04:32:48;;;;;;;12.43;6.53;;;;;;;18.08;68.95;94244.00;5083474;28;20359;-86
2023/09/15 04:35:13;;;;;;;10.95;6.15;;;;;;;18.02;69.17;94251.56;5083427;28;20032;-86
2023/09/15 04:37:39;;;;;;;12.25;6.13;;;;;;;18.06;69.45;94257.81;5083423;28;20025;-86
2023/09/15 04:40:06;;;;;;;9.85;5.63;;;;;;;18.11;69.08;94248.66;5083009;28;20047;-87
2023/09/15 04:42:33;;;;;;;10.35;6.20;;;;;;;18.16;68.74;94259.97;5065615;28;20028;-87
2023/09/15 04:45:00;;;;;;;11.45;6.15;;;;;;;18.14;69.21;94259.56;5083319;28;20091;-86
2023/09/15 04:47:33;;;;;;;8.82;5.63;;;;;;;18.18;68.96;94246.91;5083198;28;20066;-87
2023/09/15 04:49:58;;;;;;;9.73;6.15;;;;;;;18.18;68.59;94255.00;5083058;28;20067;-86
2023/09/15 04:52:24;;;;;;;9.60;5.55;;;;;;;18.22;68.79;94257.81;5083266;28;20032;-86
2023/09/15 04:54:51;;;;;;;9.70;5.07;;;;;;;18.29;68.38;94257.16;5065403;28;20024;-86
2023/09/15 04:57:17;;;;;;;12.75;5.32;;;;;;;18.29;68.18;94263.34;5065600;28;20036;-86
2023/09/15 04:59:43;;;;;;;12.15;5.95;;;;;;;18.30;68.47;94262.22;5065900;28;20020;-88
2023/09/15 05:02:09;;;;;;;16.25;5.90;;;;;;;18.34;68.48;94262.28;5065863;28;20031;-88
2023/09/15 05:04:34;;;;;;;21.17;6.38;;;;;;;18.42;68.35;94261.31;5083541;28;20091;-87
2023/09/15 05:06:59;;;;;;;20.17;6.75;;;;;;;18.44;68.03;94261.75;5083507;28;20017;-87
2023/09/15 05:09:26;;;;;;;12.52;5.65;;;;;;;18.42;68.25;94270.19;5065118;28;20020;-85
2023/09/15 05:11:53;;;;;;;14.73;8.02;;;;;;;18.48;67.88;94267.22;5082584;28;20032;-88
2023/09/15 05:14:19;;;;;;;16.00;6.93;;;;;;;18.52;68.25;94274.25;5065468;28;20070;-87
2023/09/15 05:16:46;;;;;;;17.95;6.20;;;;;;;18.50;68.32;94260.34;5084153;28;20025;-87
2023/09/15 05:19:12;;;;;;;17.08;6.60;;;;;;;18.52;68.58;94271.56;5087522;28;20369;-87
2023/09/15 05:21:37;;;;;;;11.75;6.07;;;;;;;18.58;68.26;94282.84;5086428;28;20024;-87
2023/09/15 05:24:03;;;;;;;8.77;6.18;;;;;;;18.58;68.37;94282.84;5087254;28;20032;-85
2023/09/15 05:26:28;;;;;;;11.13;6.30;;;;;;;18.59;68.18;94285.19;5086675;28;20021;-85
2023/09/15 05:28:54;;;;;;;10.88;6.40;;;;;;;18.61;68.42;94277.53;5086470;28;20060;-81
2023/09/15 05:31:25;;;;;;;19.83;6.88;;;;;;;18.70;67.99;94279.25;5068609;28;20024;-82
2023/09/15 05:33:51;;;;;;;14.85;7.53;;;;;;;18.74;67.95;94282.78;5086519;28;20099;-83
2023/09/15 05:36:16;;;;;;;17.02;6.13;;;;;;;18.69;68.52;94277.69;5068406;28;20215;-84
2023/09/15 05:38:42;;;;;;;14.98;7.43;;;;;;;18.68;68.45;94278.81;5068452;28;20021;-83
2023/09/15 05:41:07;;;;;;;22.75;7.50;;;;;;;18.73;68.42;94283.94;5086132;28;20382;-85
2023/09/15 05:43:32;;;;;;;11.98;6.70;;;;;;;18.78;68.15;94286.34;5086340;28;20039;-85
2023/09/15 05:45:58;;;;;;;21.00;9.30;;;;;;;18.78;68.71;94292.53;5068427;28;20077;-85
2023/09/15 05:48:24;;;;;;;16.85;6.85;;;;;;;18.78;68.66;94291.75;5085821;28;20360;-84
2023/09/15 05:50:50;;;;;;;12.35;6.47;;;;;;;18.73;69.15;94294.75;5085799;28;20024;-85
2023/09/15 05:53:15;;;;;;;12.00;6.97;;;;;;;18.78;69.75;94289.06;5086302;28;20020;-85
2023/09/15 05:55:41;;;;;;;14.32;7.05;;;;;;;18.84;69.58;94295.75;5085972;28;20090;-83
2023/09/15 05:58:06;;;;;;;9.30;6.30;;;;;;;18.91;69.29;94287.03;5067974;28;20070;-85
2023/09/15 06:00:32;;;;;;;18.23;7.97;;;;;;;18.98;69.66;94301.47;5085027;28;20020;-86
2023/09/15 06:02:58;;;;;;;17.23;6.90;;;;;;;18.93;69.34;94288.25;5085979;28;20251;-86
2023/09/15 06:05:25;;;;;;;12.23;6.88;;;;;;;18.94;70.18;94289.81;5067812;28;20327;-82
2023/09/15 06:07:51;;;;;;;11.95;7.20;;;;;;;18.95;69.46;94298.69;5085373;28;20028;-83
2023/09/15 06:10:17;;;;;;;10.15;6.93;;;;;;;18.97;69.94;94297.22;5085515;28;20012;-83
2023/09/15 06:12:43;;;;;;;21.10;7.65;;;;;;;18.99;69.92;94289.53;5085434;28;20111;-85
2023/09/15 06:15:10;;;;;;;10.98;6.72;;;;;;;19.09;69.48;94301.69;5067678;28;20016;-82
2023/09/15 06:17:35;;;;;;;15.63;7.00;;;;;;;19.13;69.45;94302.53;5085869;28;20051;-80
2023/09/15 06:20:01;;;;;;;20.48;7.78;;;;;;;19.24;69.72;94302.75;5085552;28;20020;-82
2023/09/15 06:22:26;;;;;;;12.68;7.45;;;;;;;19.20;69.67;94301.88;5065970;28;20028;-82
2023/09/15 06:24:52;;;;;;;11.40;6.88;;;;;;;19.21;69.13;94288.03;5065552;28;20386;-82
2023/09/15 06:27:17;;;;;;;14.63;7.15;;;;;;;19.20;69.21;94299.97;5085289;28;20095;-82
2023/09/15 06:29:43;;;;;;;14.93;6.85;;;;;;;19.26;68.57;94297.75;5066144;28;20016;-82
2023/09/15 06:32:09;;;;;;;12.75;7.95;;;;;;;19.30;69.01;94290.50;5085207;28;20027;-80
2023/09/15 06:34:34;;;;;;;10.85;6.97;;;;;;;19.36;68.61;94299.88;5083025;28;20017;-82
2023/09/15 06:37:01;;;;;;;23.98;7.10;;;;;;;19.47;68.30;94300.06;5082827;28;20088;-82
2023/09/15 06:39:27;;;;;;;12.60;7.50;;;;;;;19.52;68.40;94301.69;5082607;28;20023;-82
2023/09/15 06:41:53;;;;;;;13.40;6.93;;;;;;;19.61;68.30;94304.97;5082399;28;20025;-83
2023/09/15 06:44:19;;;;;;;18.77;7.65;;;;;;;19.57;67.64;94304.88;5082772;28;20254;-82
2023/09/15 06:46:45;;;;;;;11.13;6.97;;;;;;;19.65;68.23;94295.75;5082914;28;20222;-82
2023/09/15 06:49:11;;;;;;;16.80;7.13;;;;;;;19.75;67.84;94296.34;5083699;28;20017;-82
2023/09/15 06:51:36;;;;;;;14.27;7.22;;;;;;;19.75;67.82;94294.41;5085021;28;20034;-83
2023/09/15 06:54:02;;;;;;;22.40;8.10;;;;;;;19.83;67.29;94295.31;5067104;28;20051;-82
2023/09/15 06:56:30;;;;;;;13.13;7.43;;;;;;;19.85;67.64;94303.84;5067041;28;20024;-82
2023/09/15 06:58:55;;;;;;;11.45;7.15;;;;;;;19.89;67.98;94287.69;5084607;28;20024;-82
2023/09/15 07:01:20;;;;;;;17.50;7.82;;;;;;;19.99;67.91;94292.50;5084523;28;20038;-82
2023/09/15 07:03:46;;;;;;;13.68;7.75;;;;;;;20.14;67.44;94291.56;5084468;28;20028;-83
2023/09/15 07:06:13;;;;;;;14.75;7.20;;;;;;;20.27;66.73;94294.84;5084516;28;20025;-81
2023/09/15 07:08:39;;;;;;;20.05;7.63;;;;;;;20.30;66.21;94298.75;5084613;28;20370;-82
2023/09/15 07:11:04;;;;;;;17.17;7.72;;;;;;;20.35;65.42;94288.41;5084492;28;20032;-82
2023/09/15 07:13:29;;;;;;;19.63;7.72;;;;;;;20.39;65.39;94285.72;5066503;28;20048;-82
2023/09/15 07:15:55;;;;;;;15.98;7.38;;;;;;;20.45;65.03;94292.41;5084451;28;20027;-82
2023/09/15 07:18:20;;;;;;;9.88;6.68;;;;;;;20.42;64.53;94290.44;5083270;28;20028;-82
2023/09/15 07:20:45;;;;;;;12.52;7.50;;;;;;;20.43;65.66;94290.06;5084121;28;20032;-82
2023/09/15 07:23:11;;;;;;;11.18;6.90;;;;;;;20.47;64.37;94289.34;5084107;28;20047;-81
2023/09/15 07:25:36;;;;;;;12.38;7.10;;;;;;;20.56;64.02;94293.34;5084240;28;20023;-82
2023/09/15 07:28:03;;;;;;;13.02;6.95;;;;;;;20.57;64.11;94294.13;5066526;28;20048;-82
2023/09/15 07:30:29;;;;;;;14.93;7.57;;;;;;;20.62;64.31;94294.63;5083892;28;20364;-81
2023/09/15 07:32:54;;;;;;;12.15;6.95;;;;;;;20.73;64.54;94281.22;5084076;28;20103;-82
2023/09/15 07:35:22;;;;;;;12.75;7.15;;;;;;;20.84;64.42;94286.75;5084076;28;20058;-82
2023/09/15 07:37:48;;;;;;;14.27;7.40;;;;;;;20.94;64.93;94288.81;5083923;28;20016;-82
2023/09/15 07:40:13;;;;;;;15.77;7.15;;;;;;;21.10;64.27;94295.97;5083438;28;20270;-83
2023/09/15 07:42:39;;;;;;;10.55;7.05;;;;;;;21.20;61.86;94298.81;5066078;28;20024;-82
2023/09/15 07:45:04;;;;;;;16.88;7.28;;;;;;;21.25;62.48;94292.28;5083846;28;20149;-81
2023/09/15 07:47:30;;;;;;;15.90;7.28;;;;;;;21.38;60.80;94287.41;5065922;28;20099;-82
2023/09/15 07:49:57;;;;;;;12.65;7.18;;;;;;;21.36;59.43;94287.75;5083577;28;20013;-81
2023/09/15 07:52:24;;;;;;;13.13;7.72;;;;;;;21.42;59.61;94285.50;5083837;28;20077;-81
2023/09/15 07:54:50;;;;;;;20.33;7.20;;;;;;;21.46;58.94;94286.34;5083663;28;20031;-81
2023/09/15 07:57:16;;;;;;;10.13;6.75;;;;;;;21.59;58.79;94292.28;5065673;28;20318;-81
2023/09/15 07:59:41;;;;;;;21.55;7.15;;;;;;;21.64;58.33;94291.94;5082571;28;20074;-81
2023/09/15 08:02:06;;;;;;;12.45;6.53;;;;;;;21.69;58.18;94290.81;5065578;28;20056;-81
2023/09/15 08:04:32;;;;;;;10.52;6.40;;;;;;;21.69;57.64;94286.16;5083622;28;20125;-81
2023/09/15 08:06:57;;;;;;;16.50;6.63;;;;;;;21.75;58.48;94290.09;5083584;28;20032;-81
2023/09/15 08:09:23;;;;;;;12.70;6.50;;;;;;;21.87;57.52;94280.91;5083537;28;20024;-82
2023/09/15 08:11:48;;;;;;;14.70;7.00;;;;;;;21.95;56.72;94277.09;5062205;28;20127;-81
2023/09/15 08:14:14;;;;;;;17.17;7.50;;;;;;;21.94;56.90;94286.41;5063181;28;20039;-81
2023/09/15 08:16:39;;;;;;;10.50;6.95;;;;;;;22.00;56.99;94275.97;5062044;28;20029;-81
2023/09/15 08:19:05;;;;;;;14.13;6.80;;;;;;;22.04;56.75;94274.88;5063299;28;20044;-80
2023/09/15 08:21:30;;;;;;;10.20;6.80;;;;;;;22.19;56.16;94273.03;5063245;28;20024;-82
2023/09/15 08:23:56;;;;;;;17.95;6.97;;;;;;;22.30;56.47;94272.34;5063305;28;20021;-82
2023/09/15 08:26:22;;;;;;;16.50;6.65;;;;;;;22.47;56.16;94277.13;5063228;28;20020;-82
2023/09/15 08:28:47;;;;;;;16.90;7.65;;;;;;;22.62;55.73;94269.84;5062011;28;20032;-81
2023/09/15 08:31:13;;;;;;;8.85;6.53;;;;;;;22.79;54.39;94262.94;5062944;28;20071;-82
2023/09/15 08:33:38;;;;;;;15.50;7.47;;;;;;;22.98;53.96;94259.91;5063001;28;20067;-81
2023/09/15 08:36:04;;;;;;;19.00;7.38;;;;;;;23.19;54.07;94266.63;5063210;28;20024;-81
2023/09/15 08:38:31;;;;;;;17.83;6.88;;;;;;;23.26;53.60;94269.34;5063044;28;20020;-82
2023/09/15 08:41:03;;;;;;;13.70;6.78;;;;;;;23.26;52.84;94258.47;5061800;28;20227;-82
2023/09/15 08:43:29;;;;;;;14.10;7.82;;;;;;;23.33;52.81;94261.22;5078502;28;20322;-81
2023/09/15 08:45:55;;;;;;;13.88;7.18;;;;;;;23.40;52.67;94265.91;5062831;28;20037;-81
2023/09/15 08:48:25;;;;;;;10.65;7.28;;;;;;;23.41;52.95;94264.75;5062867;28;20021;-82
2023/09/15 08:50:58;;;;;;;24.58;7.47;;;;;;;23.38;52.11;94260.84;5062459;28;20025;-81
2023/09/15 08:53:24;;;;;;;15.40;6.90;;;;;;;23.44;51.93;94262.00;5062278;28;20021;-81
2023/09/15 08:55:50;;;;;;;14.88;7.18;;;;;;;23.42;52.29;94256.19;5062686;28;20033;-81
2023/09/15 08:58:17;;;;;;;15.95;7.75;;;;;;;23.44;52.18;94247.63;5062727;28;20021;-81
2023/09/15 09:00:42;;;;;;;16.20;7.18;;;;;;;23.41;52.79;94238.31;5062690;28;20063;-81
2023/09/15 09:03:12;;;;;;;16.85;7.32;;;;;;;23.42;52.26;94236.38;5062694;28;20021;-81
2023/09/15 09:05:39;;;;;;;23.48;7.78;;;;;;;23.32;52.68;94243.34;5062814;28;20017;-81
2023/09/15 09:08:05;;;;;;;11.13;7.43;;;;;;;23.31;52.69;94244.50;5061658;28;20092;-81
2023/09/15 09:10:30;;;;;;;13.23;7.40;;;;;;;23.39;52.68;94239.88;5062520;28;20021;-80
2023/09/15 09:12:56;;;;;;;12.93;7.32;;;;;;;23.37;52.27;94242.97;5077826;28;20146;-82
2023/09/15 09:15:22;;;;;;;18.35;7.78;;;;;;;23.25;52.41;94245.28;5064854;28;20091;-80
2023/09/15 09:17:47;;;;;;;13.30;7.03;;;;;;;23.30;52.76;94242.94;5082851;28;20024;-81
2023/09/15 09:20:26;;;;;;;15.63;7.57;;;;;;;23.40;52.40;94242.19;5082796;28;20279;-81
2023/09/15 09:22:53;;;;;;;12.48;6.90;;;;;;;23.60;51.88;94244.56;5064692;28;20055;-81
2023/09/15 09:25:28;;;;;;;13.60;8.15;;;;;;;23.68;50.29;94237.19;5064226;28;20103;-80
2023/09/15 09:27:55;;;;;;;15.15;7.00;;;;;;;23.69;50.47;94242.25;5082380;28;20322;-81
2023/09/15 09:30:29;;;;;;;10.68;6.75;;;;;;;23.76;50.42;94242.25;5082442;28;20227;-81
2023/09/15 09:32:57;;;;;;;14.10;7.55;;;;;;;23.92;50.00;94254.75;5082329;28;20184;-81
2023/09/15 09:35:23;;;;;;;11.95;6.88;;;;;;;23.93;50.24;94245.38;5082564;28;20219;-81
2023/09/15 09:37:50;;;;;;;10.75;7.07;;;;;;;23.69;49.06;94252.34;5064597;28;20025;-81
2023/09/15 09:40:17;;;;;;;9.48;6.43;;;;;;;23.75;49.23;94240.69;5082295;28;20310;-80
2023/09/15 09:42:43;;;;;;;11.73;6.65;;;;;;;23.81;49.23;94247.34;5082404;28;20047;-81
2023/09/15 09:45:10;;;;;;;11.57;7.68;;;;;;;23.90;49.40;94246.19;5064510;28;20254;-81
2023/09/15 09:47:36;;;;;;;17.75;8.02;;;;;;;24.07;49.58;94245.38;5082418;28;20074;-81
2023/09/15 09:50:06;;;;;;;15.00;6.85;;;;;;;24.23;47.96;94237.59;5082554;28;20028;-80
2023/09/15 09:52:32;;;;;;;16.48;7.05;;;;;;;24.25;47.09;94244.59;5082501;28;20036;-81
2023/09/15 09:55:01;;;;;;;16.05;6.75;;;;;;;24.30;47.57;94241.47;5082287;28;20070;-81
2023/09/15 09:57:27;;;;;;;12.05;7.95;;;;;;;24.46;47.46;94232.88;5082369;28;20092;-81
2023/09/15 09:59:52;;;;;;;13.45;6.95;;;;;;;24.42;45.80;94239.13;5082452;28;20215;-81
2023/09/15 10:02:18;;;;;;;10.32;6.00;;;;;;;24.51;46.52;94227.84;5082306;28;20028;-81
2023/09/15 10:04:43;;;;;;;12.65;7.03;;;;;;;24.67;45.93;94237.53;5085712;28;20044;-82
2023/09/15 10:07:09;;;;;;;12.00;6.75;;;;;;;24.87;45.72;94227.72;5085757;28;20023;-82
2023/09/15 10:09:35;;;;;;;10.60;5.97;;;;;;;25.14;45.83;94222.56;5085723;28;20033;-82
2023/09/15 10:12:01;;;;;;;9.15;5.90;;;;;;;25.43;43.97;94231.38;5085623;28;20052;-82
2023/09/15 10:14:29;;;;;;;19.25;7.50;;;;;;;25.67;43.24;94226.16;5084495;28;20234;-82
2023/09/15 10:16:56;;;;;;;14.32;7.00;;;;;;;25.90;43.68;94227.56;5085642;28;20103;-81
2023/09/15 10:19:21;;;;;;;12.35;6.03;;;;;;;25.72;42.62;94227.69;5085563;28;20025;-81
2023/09/15 10:21:47;;;;;;;12.77;6.72;;;;;;;25.73;42.54;94231.97;5085209;28;20025;-81
2023/09/15 10:24:15;;;;;;;12.95;7.38;;;;;;;25.65;43.19;94225.78;5085449;28;20307;-81
2023/09/15 10:26:44;;;;;;;12.10;6.63;;;;;;;25.57;43.81;94227.78;5085565;28;20222;-82
2023/09/15 10:29:13;;;;;;;11.95;5.90;;;;;;;25.77;41.75;94230.00;5085288;28;20314;-82
2023/09/15 10:31:42;;;;;;;15.18;7.75;;;;;;;25.61;44.45;94222.31;5085527;28;20028;-81
2023/09/15 10:34:09;;;;;;;12.77;6.57;;;;;;;25.62;44.53;94216.44;5085312;28;20048;-82
2023/09/15 10:36:34;;;;;;;10.00;6.20;;;;;;;25.79;44.80;94212.03;5085034;28;20081;-81
2023/09/15 10:39:18;;;;;;;16.50;6.72;;;;;;;26.10;45.34;94205.97;5085293;28;20095;-83
2023/09/15 10:41:44;;;;;;;13.27;6.68;;;;;;;26.50;43.84;94206.31;5085126;28;20051;-83
2023/09/15 10:44:11;;;;;;;10.80;6.55;;;;;;;26.56;42.96;94213.69;5085170;28;20092;-84
2023/09/15 10:46:39;;;;;;;17.42;6.80;;;;;;;26.54;43.46;94213.34;5085072;28;20016;-82
2023/09/15 10:49:19;;;;;;;14.15;7.60;;;;;;;26.51;42.80;94205.94;5084966;28;20032;-82
2023/09/15 10:51:56;;;;;;;16.33;7.05;;;;;;;26.36;43.64;94207.28;5067017;28;20138;-82
2023/09/15 10:54:25;;;;;;;13.43;6.60;;;;;;;26.40;44.35;94200.59;5084896;28;20023;-82
2023/09/15 10:56:51;;;;;;;13.57;6.65;;;;;;;26.35;43.63;94201.00;5084814;28;20083;-82
2023/09/15 10:59:16;;;;;;;14.35;6.95;;;;;;;26.28;43.78;94194.88;5084675;28;20027;-82
2023/09/15 11:01:43;;;;;;;11.15;6.20;;;;;;;26.50;43.71;94190.72;5066850;28;20089;-83
2023/09/15 11:04:12;;;;;;;15.82;7.28;;;;;;;26.69;43.29;94194.06;5084596;28;20039;-82
2023/09/15 11:06:39;;;;;;;11.73;6.75;;;;;;;26.83;42.49;94199.38;5084724;28;20104;-83
2023/09/15 11:09:05;;;;;;;11.25;6.05;;;;;;;26.85;41.82;94186.06;5084589;28;20028;-83
2023/09/15 11:11:31;;;;;;;11.70;6.95;;;;;;;26.81;42.03;94193.53;5084302;28;20039;-82
2023/09/15 11:13:57;;;;;;;17.60;7.18;;;;;;;26.75;42.48;94186.97;5084077;28;20043;-82
2023/09/15 11:16:26;;;;;;;10.80;7.03;;;;;;;26.75;42.38;94187.72;5083467;28;20009;-82
2023/09/15 11:18:52;;;;;;;12.18;6.22;;;;;;;26.86;43.19;94167.69;5084440;28;20048;-84
2023/09/15 11:21:17;;;;;;;16.48;7.07;;;;;;;27.01;41.22;94183.50;5084267;28;20032;-78
2023/09/15 11:23:45;;;;;;;11.18;6.50;;;;;;;26.90;40.90;94177.38;5084283;28;20222;-80